Time;durP1;ratioP1;P1;durP2;ratioP2;P2;SDS_P1;SDS_P2;PMS_P1;PMS_P2;Temp;Humidity;BMP_temperature;BMP_pressure;BME280_temperature;BME280_humidity;BME280_pressure;Samples;Min_cycle;Max_cycle;Signal;HPM_P1;HPM_P2
2021/12/24 00:02:11;;;;;;;8.33;7.50;;;2.20;99.90;;;;;;4992989;28;20177;-67
2021/12/24 00:04:36;;;;;;;16.37;7.90;;;2.20;99.90;;;;;;4992967;28;20205;-67
2021/12/24 00:07:02;;;;;;;9.83;6.77;;;2.20;99.90;;;;;;4992552;28;20266;-68
2021/12/24 00:09:32;;;;;;;8.00;7.30;;;2.30;99.90;;;;;;4992569;28;20176;-68
2021/12/24 00:12:00;;;;;;;10.07;6.33;;;2.30;99.90;;;;;;4992999;28;20184;-68
2021/12/24 00:14:27;;;;;;;13.27;7.20;;;2.30;99.90;;;;;;4992888;28;20467;-68
2021/12/24 00:16:54;;;;;;;12.87;7.37;;;2.40;99.90;;;;;;4992488;28;20463;-68
2021/12/24 00:19:35;;;;;;;12.73;7.00;;;2.40;99.90;;;;;;4992869;28;20419;-68
2021/12/24 00:22:30;;;;;;;13.43;6.40;;;2.30;99.90;;;;;;4992564;28;20917;-67
2021/12/24 00:35:52;;;;;;;13.80;8.03;;;2.50;99.90;;;;;;4993067;28;20454;-68
2021/12/24 00:38:17;;;;;;;8.73;6.00;;;2.50;99.90;;;;;;4992820;28;20408;-68
2021/12/24 00:40:45;;;;;;;15.63;8.20;;;2.40;99.90;;;;;;4992409;28;20176;-68
2021/12/24 00:43:13;;;;;;;9.80;6.37;;;2.40;99.90;;;;;;4994114;28;20164;-68
2021/12/24 00:45:43;;;;;;;13.90;8.40;;;2.40;99.90;;;;;;4994500;28;20419;-68
2021/12/24 00:48:13;;;;;;;11.67;8.70;;;2.40;99.90;;;;;;4993938;28;20511;-68
2021/12/24 00:56:07;;;;;;;16.70;8.47;;;2.50;99.90;;;;;;4992388;28;20463;-68
2021/12/24 00:58:33;;;;;;;7.87;5.80;;;2.50;99.90;;;;;;4992293;28;20396;-67
2021/12/24 01:00:59;;;;;;;19.87;8.40;;;2.50;99.90;;;;;;4991826;28;20958;-67
2021/12/24 01:03:25;;;;;;;13.20;7.03;;;2.50;99.90;;;;;;4991865;28;20165;-68
2021/12/24 01:05:51;;;;;;;9.87;8.23;;;2.50;99.90;;;;;;4991695;28;20222;-67
2021/12/24 01:08:17;;;;;;;13.07;6.20;;;2.50;99.90;;;;;;4991937;28;20392;-68
2021/12/24 01:10:45;;;;;;;18.53;7.33;;;2.50;99.90;;;;;;4991756;28;20478;-68
2021/12/24 01:13:11;;;;;;;8.57;7.33;;;2.50;99.90;;;;;;4991774;28;20177;-67
2021/12/24 01:15:48;;;;;;;12.93;7.17;;;2.60;99.90;;;;;;4991470;28;20494;-67
2021/12/24 01:18:24;;;;;;;11.90;8.23;;;2.60;99.90;;;;;;4991969;28;20467;-67
2021/12/24 01:20:58;;;;;;;11.93;7.50;;;2.60;99.90;;;;;;4991896;28;20391;-67
2021/12/24 01:26:00;;;;;;;11.67;6.20;;;2.60;99.90;;;;;;4991910;28;20511;-68
2021/12/24 01:28:42;;;;;;;19.50;9.10;;;2.70;99.90;;;;;;4991887;28;20434;-67
2021/12/24 01:39:41;;;;;;;15.10;7.60;;;2.70;99.90;;;;;;4991868;28;20442;-67
2021/12/24 01:44:53;;;;;;;13.53;6.47;;;2.80;99.90;;;;;;4991819;28;20480;-67
2021/12/24 01:47:18;;;;;;;13.93;7.20;;;2.80;99.90;;;;;;4991714;28;20464;-68
2021/12/24 01:49:44;;;;;;;14.83;7.40;;;2.80;99.90;;;;;;4991649;28;20771;-68
2021/12/24 01:52:10;;;;;;;12.13;7.77;;;2.80;99.90;;;;;;4991783;28;20281;-68
2021/12/24 01:54:35;;;;;;;10.57;9.10;;;2.80;99.90;;;;;;4991578;28;20412;-68
2021/12/24 01:57:02;;;;;;;12.20;6.30;;;2.90;99.90;;;;;;4993638;28;20235;-68
2021/12/24 01:59:28;;;;;;;13.07;7.97;;;2.90;99.90;;;;;;4995231;28;20548;-67
2021/12/24 02:01:53;;;;;;;12.83;7.70;;;2.90;99.90;;;;;;4994617;28;20408;-68
2021/12/24 02:04:20;;;;;;;11.87;7.13;;;2.90;99.90;;;;;;4994674;28;20177;-67
2021/12/24 02:06:47;;;;;;;6.40;4.67;;;2.90;99.90;;;;;;4994440;28;20208;-67
2021/12/24 02:09:13;;;;;;;17.67;7.97;;;2.90;99.90;;;;;;4994552;28;20415;-68
2021/12/24 02:11:40;;;;;;;16.00;9.27;;;3.00;99.90;;;;;;4994455;28;20412;-68
2021/12/24 02:14:18;;;;;;;5.33;4.83;;;2.90;99.90;;;;;;4994596;28;20774;-68
2021/12/24 02:16:58;;;;;;;5.50;4.03;;;3.00;99.90;;;;;;4994541;28;20462;-68
2021/12/24 02:30:24;;;;;;;6.37;4.93;;;3.00;99.90;;;;;;4994724;28;20870;-68
2021/12/24 02:32:50;;;;;;;10.63;6.80;;;3.00;99.90;;;;;;4994065;28;20416;-68
2021/12/24 02:35:18;;;;;;;10.40;8.40;;;3.00;99.90;;;;;;4994362;28;20169;-68
2021/12/24 02:37:45;;;;;;;6.60;4.20;;;3.10;99.90;;;;;;4975647;28;20284;-68
2021/12/24 02:40:11;;;;;;;8.60;5.60;;;3.10;99.90;;;;;;4974568;28;20417;-68
2021/12/24 02:42:37;;;;;;;11.27;6.13;;;3.10;99.90;;;;;;4974439;28;20479;-68
2021/12/24 02:45:03;;;;;;;7.10;6.37;;;3.10;99.90;;;;;;4974681;28;20644;-68
2021/12/24 02:47:41;;;;;;;9.87;5.80;;;3.10;99.90;;;;;;4974354;28;20185;-68
2021/12/24 02:55:37;;;;;;;4.27;3.60;;;3.10;99.90;;;;;;4974403;28;20443;-68
2021/12/24 02:58:02;;;;;;;6.57;4.23;;;3.20;99.90;;;;;;4974529;28;20409;-68
2021/12/24 03:00:29;;;;;;;8.77;5.30;;;3.20;99.90;;;;;;4973158;28;20200;-68
2021/12/24 03:02:56;;;;;;;8.00;4.87;;;3.20;99.90;;;;;;4974538;28;20174;-68
2021/12/24 03:05:24;;;;;;;8.33;5.40;;;3.20;99.90;;;;;;4974348;28;20424;-68
2021/12/24 03:07:50;;;;;;;9.07;5.10;;;3.30;99.90;;;;;;4985821;23;20496;-69
2021/12/24 03:10:18;;;;;;;4.63;3.77;;;3.20;99.90;;;;;;4974608;28;20405;-69
2021/12/24 03:12:47;;;;;;;7.93;5.93;;;3.30;99.90;;;;;;4977155;28;20241;-69
2021/12/24 03:15:15;;;;;;;8.43;4.60;;;3.30;99.90;;;;;;4977708;28;20401;-70
2021/12/24 03:17:47;;;;;;;3.97;3.40;;;3.30;99.90;;;;;;4977708;28;20951;-71
2021/12/24 03:20:13;;;;;;;5.53;4.90;;;3.30;99.90;;;;;;4977374;28;20467;-70
2021/12/24 03:23:01;;;;;;;5.00;4.20;;;3.30;99.90;;;;;;4975138;28;20513;-70
2021/12/24 03:25:26;;;;;;;9.20;6.20;;;3.40;99.90;;;;;;4974066;28;20162;-69
2021/12/24 03:27:52;;;;;;;5.17;4.10;;;3.40;99.90;;;;;;4973899;28;20768;-68
2021/12/24 03:30:17;;;;;;;7.97;4.37;;;3.40;99.90;;;;;;4974542;28;20232;-68
2021/12/24 03:32:43;;;;;;;6.93;5.87;;;3.40;99.90;;;;;;4973882;28;20181;-69
2021/12/24 03:35:09;;;;;;;6.07;4.83;;;3.40;99.90;;;;;;4973722;28;20658;-70
2021/12/24 03:37:34;;;;;;;6.13;4.60;;;3.50;99.90;;;;;;4973597;28;20216;-68
2021/12/24 03:40:00;;;;;;;12.60;5.50;;;3.50;99.90;;;;;;4974103;28;20185;-69
2021/12/24 03:42:25;;;;;;;6.53;4.43;;;3.50;99.90;;;;;;4975046;28;20182;-69
2021/12/24 03:44:58;;;;;;;10.10;5.17;;;3.50;99.90;;;;;;4975291;28;20177;-69
2021/12/24 03:47:26;;;;;;;9.27;5.40;;;3.60;99.90;;;;;;4975312;28;20244;-69
2021/12/24 03:52:49;;;;;;;9.80;5.27;;;3.60;99.90;;;;;;4974134;28;20420;-68
2021/12/24 03:55:09;;;;;;;6.60;4.23;;;3.60;99.90;;;;;;4973358;28;20181;-67
2021/12/24 03:57:38;;;;;;;12.73;6.10;;;3.60;99.90;;;;;;4973277;28;20459;-68
2021/12/24 04:00:25;;;;;;;8.00;4.40;;;3.60;99.90;;;;;;4973355;28;20170;-69
2021/12/24 04:02:51;;;;;;;9.20;6.37;;;3.60;99.90;;;;;;4973320;28;20991;-69
2021/12/24 04:05:17;;;;;;;7.67;5.40;;;3.70;99.90;;;;;;4972901;28;20600;-70
2021/12/24 04:07:42;;;;;;;7.43;3.77;;;3.70;99.90;;;;;;4972996;28;20551;-70
2021/12/24 04:10:21;;;;;;;8.23;4.97;;;3.70;99.90;;;;;;4972991;28;20488;-69
2021/12/24 04:12:47;;;;;;;9.00;6.20;;;3.70;99.90;;;;;;4973390;28;20185;-69
2021/12/24 04:15:12;;;;;;;5.37;3.33;;;3.80;99.90;;;;;;4973024;28;20413;-71
2021/12/24 04:17:40;;;;;;;7.17;5.57;;;3.80;99.90;;;;;;4972935;28;20205;-70
2021/12/24 04:25:26;;;;;;;4.50;2.93;;;3.80;99.90;;;;;;4972912;28;20416;-71
2021/12/24 04:27:53;;;;;;;5.43;4.00;;;3.90;99.90;;;;;;4972839;28;20538;-68
2021/12/24 04:30:25;;;;;;;4.13;3.67;;;3.90;99.90;;;;;;4972515;28;20504;-70
2021/12/24 04:32:57;;;;;;;6.00;4.37;;;3.90;99.90;;;;;;4972579;28;20920;-68
2021/12/24 04:38:25;;;;;;;11.90;5.20;;;4.00;99.90;;;;;;4962658;28;20984;-69
2021/12/24 04:51:54;;;;;;;7.47;3.87;;;4.10;99.90;;;;;;4953477;28;20425;-69
2021/12/24 05:02:57;;;;;;;5.13;4.63;;;4.10;99.90;;;;;;4951923;28;20421;-69
2021/12/24 05:05:37;;;;;;;4.60;3.63;;;4.20;99.90;;;;;;4953178;28;20402;-69
2021/12/24 05:08:21;;;;;;;4.27;3.90;;;4.20;99.90;;;;;;4952745;28;20477;-69
2021/12/24 05:10:48;;;;;;;5.23;3.63;;;4.20;99.90;;;;;;4951820;28;20414;-69
2021/12/24 05:13:16;;;;;;;3.33;2.83;;;4.30;99.90;;;;;;4952948;28;20410;-70
2021/12/24 05:15:44;;;;;;;4.30;3.53;;;4.30;99.90;;;;;;4953006;28;21066;-69
2021/12/24 05:18:36;;;;;;;9.70;5.40;;;4.30;99.90;;;;;;4952768;28;20421;-69
2021/12/24 05:23:46;;;;;;;3.13;2.83;;;4.30;99.90;;;;;;4953218;28;20413;-70
2021/12/24 05:26:13;;;;;;;6.27;4.17;;;4.30;99.90;;;;;;4952855;28;20429;-69
2021/12/24 05:28:39;;;;;;;3.30;2.90;;;4.40;99.90;;;;;;4952713;28;20545;-69
2021/12/24 05:31:05;;;;;;;5.70;4.37;;;4.40;99.90;;;;;;4953823;28;20433;-69
2021/12/24 05:33:31;;;;;;;3.67;3.30;;;4.40;99.90;;;;;;4956485;28;20202;-68
2021/12/24 05:35:56;;;;;;;4.80;4.17;;;4.40;99.90;;;;;;4956503;28;20212;-70
2021/12/24 05:38:22;;;;;;;3.10;2.37;;;4.50;99.90;;;;;;4956522;28;20167;-68
2021/12/24 05:40:47;;;;;;;3.40;2.90;;;4.50;99.90;;;;;;4956544;28;20623;-70
2021/12/24 05:43:13;;;;;;;6.23;3.37;;;4.50;99.90;;;;;;4956421;28;20162;-69
2021/12/24 05:45:39;;;;;;;2.33;1.97;;;4.50;99.90;;;;;;4956184;28;20664;-68
2021/12/24 05:48:04;;;;;;;2.73;2.33;;;4.60;99.90;;;;;;4956213;28;20721;-68
2021/12/24 05:50:30;;;;;;;3.33;2.10;;;4.60;99.90;;;;;;4956399;28;20182;-67
2021/12/24 05:52:56;;;;;;;3.87;3.03;;;4.60;99.90;;;;;;4956346;28;20181;-67
2021/12/24 05:55:21;;;;;;;3.87;3.57;;;4.60;99.90;;;;;;4955991;28;20186;-68
2021/12/24 05:57:46;;;;;;;2.40;2.20;;;4.70;99.90;;;;;;4956071;28;20214;-68
2021/12/24 06:00:13;;;;;;;2.70;2.47;;;4.70;99.90;;;;;;4956227;28;20179;-68
2021/12/24 06:02:39;;;;;;;2.73;1.80;;;4.70;99.90;;;;;;4956326;28;20291;-68
2021/12/24 06:05:05;;;;;;;2.87;2.33;;;4.70;99.90;;;;;;4956304;28;20854;-68
2021/12/24 06:07:30;;;;;;;2.33;2.13;;;4.80;99.90;;;;;;4955924;28;20214;-68
2021/12/24 06:09:56;;;;;;;2.30;2.10;;;4.80;99.90;;;;;;4956135;28;20905;-68
2021/12/24 06:12:21;;;;;;;2.60;1.80;;;4.80;99.90;;;;;;4955834;28;20186;-69
2021/12/24 06:14:53;;;;;;;2.43;1.53;;;4.80;99.90;;;;;;4956384;28;20280;-68
2021/12/24 06:17:19;;;;;;;1.00;0.90;;;4.80;99.90;;;;;;4955870;28;20214;-68
2021/12/24 06:19:44;;;;;;;1.83;1.60;;;4.80;99.90;;;;;;4956157;28;20410;-68
2021/12/24 06:22:10;;;;;;;1.67;1.53;;;4.90;99.90;;;;;;4955619;28;20420;-69
2021/12/24 06:24:36;;;;;;;1.87;1.40;;;4.90;99.90;;;;;;4955647;28;20650;-69
2021/12/24 06:27:03;;;;;;;1.60;1.50;;;4.90;99.90;;;;;;4955463;28;20429;-69
2021/12/24 06:29:28;;;;;;;2.57;2.07;;;4.90;99.90;;;;;;4956116;28;20266;-69
2021/12/24 06:31:54;;;;;;;2.70;1.53;;;5.00;99.90;;;;;;4956497;28;20512;-69
2021/12/24 06:34:19;;;;;;;1.47;1.37;;;4.90;99.90;;;;;;4956847;28;20285;-69
2021/12/24 06:36:48;;;;;;;1.60;1.50;;;4.90;99.90;;;;;;4955432;28;20210;-68
2021/12/24 06:39:15;;;;;;;1.43;1.27;;;5.00;99.90;;;;;;4955513;28;20253;-70
2021/12/24 06:41:41;;;;;;;1.50;1.40;;;5.00;99.90;;;;;;4965455;28;20940;-72
2021/12/24 06:44:10;;;;;;;1.97;1.87;;;5.00;99.90;;;;;;4975369;28;20405;-71
2021/12/24 06:46:36;;;;;;;2.10;1.93;;;5.00;99.90;;;;;;4974807;28;20444;-69
2021/12/24 06:49:01;;;;;;;1.60;1.40;;;5.10;99.90;;;;;;4974584;28;20405;-69
2021/12/24 06:51:27;;;;;;;2.30;2.03;;;5.10;99.90;;;;;;4974697;28;20177;-68
2021/12/24 06:53:53;;;;;;;2.83;2.10;;;5.10;99.90;;;;;;4974361;28;20185;-68
2021/12/24 06:56:19;;;;;;;1.63;1.53;;;5.10;99.90;;;;;;4974180;28;20209;-70
2021/12/24 06:58:45;;;;;;;2.23;1.30;;;5.10;99.90;;;;;;4974366;28;20929;-69
2021/12/24 07:01:11;;;;;;;2.27;1.30;;;5.10;99.90;;;;;;4974390;28;20566;-70
2021/12/24 07:03:39;;;;;;;1.77;1.67;;;5.10;99.90;;;;;;4974248;28;20201;-70
2021/12/24 07:06:06;;;;;;;2.23;1.97;;;5.20;99.90;;;;;;4972902;28;20921;-69
2021/12/24 07:08:31;;;;;;;2.13;1.77;;;5.10;99.90;;;;;;4968772;28;20453;-69
2021/12/24 07:10:57;;;;;;;1.47;1.37;;;5.20;99.90;;;;;;4970520;28;20422;-70
2021/12/24 07:13:23;;;;;;;2.73;1.50;;;5.20;99.90;;;;;;4972670;28;20555;-69
2021/12/24 07:15:49;;;;;;;1.80;1.70;;;5.20;99.90;;;;;;4970272;28;20550;-70
2021/12/24 07:18:14;;;;;;;1.80;1.20;;;5.20;99.90;;;;;;4974231;28;20413;-68
2021/12/24 07:20:40;;;;;;;1.27;1.17;;;5.20;99.90;;;;;;4973804;28;20177;-69
2021/12/24 07:23:06;;;;;;;1.53;1.20;;;5.20;99.90;;;;;;4973885;28;20296;-69
2021/12/24 07:25:32;;;;;;;1.60;1.47;;;5.20;99.90;;;;;;4957607;28;20181;-70
2021/12/24 07:27:57;;;;;;;2.20;2.00;;;5.20;99.90;;;;;;4954802;28;20194;-68
2021/12/24 07:30:23;;;;;;;2.60;1.43;;;5.30;99.90;;;;;;4973386;28;20240;-68
2021/12/24 07:32:50;;;;;;;1.67;1.57;;;5.30;99.90;;;;;;4973629;28;20440;-69
2021/12/24 07:35:16;;;;;;;2.03;1.83;;;5.30;99.90;;;;;;4973650;28;20444;-69
2021/12/24 07:37:42;;;;;;;1.40;1.30;;;5.30;99.90;;;;;;4972168;28;20519;-70
2021/12/24 07:40:09;;;;;;;5.07;1.63;;;5.30;99.90;;;;;;4973556;28;20908;-70
2021/12/24 07:42:35;;;;;;;2.10;1.97;;;5.30;99.90;;;;;;4957229;28;20172;-68
2021/12/24 07:45:03;;;;;;;2.70;1.70;;;5.30;99.90;;;;;;4954322;28;20462;-69
2021/12/24 07:47:32;;;;;;;2.07;1.23;;;5.40;99.90;;;;;;4954103;29;20438;-68
2021/12/24 07:50:04;;;;;;;2.50;1.43;;;5.40;99.90;;;;;;4954170;28;20473;-69
2021/12/24 07:52:30;;;;;;;0.97;0.97;;;5.40;99.90;;;;;;4954075;29;20828;-68
2021/12/24 07:54:56;;;;;;;1.83;1.13;;;5.40;99.90;;;;;;4960878;28;20463;-70
2021/12/24 07:57:24;;;;;;;2.43;2.33;;;5.40;99.90;;;;;;4973248;28;20490;-68
2021/12/24 07:59:50;;;;;;;1.33;1.27;;;5.50;99.90;;;;;;4973604;28;20176;-69
2021/12/24 08:02:22;;;;;;;3.13;1.67;;;5.50;99.90;;;;;;4970670;28;20432;-69
2021/12/24 08:04:47;;;;;;;1.73;1.63;;;5.50;99.90;;;;;;4973034;28;20931;-69
2021/12/24 08:07:15;;;;;;;2.00;1.33;;;5.50;99.90;;;;;;4965136;28;20453;-68
2021/12/24 08:09:41;;;;;;;0.80;0.80;;;5.50;99.90;;;;;;4972986;28;20169;-69
2021/12/24 08:12:09;;;;;;;2.90;1.80;;;5.50;99.90;;;;;;4972710;28;20841;-68
2021/12/24 08:14:35;;;;;;;1.20;1.10;;;5.50;99.90;;;;;;4972887;28;20506;-68
2021/12/24 08:17:01;;;;;;;1.43;1.33;;;5.50;99.90;;;;;;4988187;28;20477;-69
2021/12/24 08:19:27;;;;;;;1.90;1.50;;;5.60;99.90;;;;;;4972521;28;20420;-68
2021/12/24 08:21:52;;;;;;;1.23;0.90;;;5.60;99.90;;;;;;4972983;28;20229;-68
2021/12/24 08:24:19;;;;;;;2.10;1.90;;;5.60;99.90;;;;;;4972849;28;20410;-69
2021/12/24 08:26:44;;;;;;;3.30;1.00;;;5.60;99.90;;;;;;4972674;28;20276;-68
2021/12/24 08:29:10;;;;;;;1.10;1.00;;;5.60;99.90;;;;;;4972915;28;20886;-69
2021/12/24 08:31:36;;;;;;;1.40;1.30;;;5.60;99.90;;;;;;4972890;28;20173;-70
2021/12/24 08:34:03;;;;;;;1.20;1.10;;;5.70;99.90;;;;;;4971983;28;20265;-70
2021/12/24 08:36:29;;;;;;;1.83;1.13;;;5.70;99.90;;;;;;4972042;28;20496;-68
2021/12/24 08:38:55;;;;;;;0.83;0.83;;;5.70;99.90;;;;;;4972343;28;20986;-69
2021/12/24 08:41:25;;;;;;;1.70;1.07;;;5.70;99.90;;;;;;4972147;28;20461;-69
2021/12/24 08:43:50;;;;;;;1.20;1.10;;;5.80;99.90;;;;;;5003249;28;20177;-69
2021/12/24 08:46:16;;;;;;;1.07;0.97;;;5.70;99.90;;;;;;4972538;28;20427;-69
2021/12/24 08:48:42;;;;;;;7.87;5.47;;;5.80;99.90;;;;;;4965039;28;20190;-69
2021/12/24 08:51:07;;;;;;;3.53;1.90;;;5.80;99.90;;;;;;4955296;28;20748;-68
2021/12/24 08:53:33;;;;;;;1.10;1.00;;;5.80;99.90;;;;;;4972146;28;20178;-67
2021/12/24 08:55:59;;;;;;;1.33;1.00;;;5.80;99.90;;;;;;4971662;28;20189;-68
2021/12/24 08:58:25;;;;;;;2.23;1.33;;;5.80;99.90;;;;;;4972123;28;20300;-68
2021/12/24 09:00:51;;;;;;;2.53;1.80;;;5.80;99.90;;;;;;4971931;28;20488;-69
2021/12/24 09:03:16;;;;;;;1.20;1.07;;;5.80;99.90;;;;;;4971897;28;20173;-69
2021/12/24 09:05:42;;;;;;;1.40;1.30;;;5.80;99.90;;;;;;4958804;28;20198;-67
2021/12/24 09:08:08;;;;;;;1.30;1.20;;;5.80;99.90;;;;;;4955951;28;20213;-69
2021/12/24 09:10:34;;;;;;;1.20;1.10;;;5.80;99.90;;;;;;4972198;28;20173;-71
2021/12/24 09:13:00;;;;;;;4.83;1.20;;;5.80;99.90;;;;;;4972037;28;20412;-71
2021/12/24 09:15:29;;;;;;;0.90;0.87;;;5.80;99.90;;;;;;4977602;28;20408;-69
2021/12/24 09:17:56;;;;;;;1.63;1.30;;;5.80;99.90;;;;;;4984947;28;20592;-70
2021/12/24 09:20:27;;;;;;;1.00;0.80;;;5.80;99.90;;;;;;4970090;28;20422;-69
2021/12/24 09:22:55;;;;;;;1.40;1.30;;;5.80;99.90;;;;;;4954051;28;20413;-69
2021/12/24 09:25:22;;;;;;;1.00;0.90;;;5.80;99.90;;;;;;4952553;28;20406;-69
2021/12/24 09:27:48;;;;;;;1.73;1.10;;;5.80;99.90;;;;;;4957289;28;20433;-69
2021/12/24 09:30:13;;;;;;;0.90;0.90;;;5.70;99.90;;;;;;4971819;28;20432;-70
2021/12/24 09:32:39;;;;;;;1.10;0.70;;;5.70;99.90;;;;;;4971919;28;20184;-69
2021/12/24 09:35:05;;;;;;;1.37;0.70;;;5.80;99.90;;;;;;4972042;28;20224;-69
2021/12/24 09:37:30;;;;;;;0.97;0.83;;;5.70;99.90;;;;;;4971894;28;20209;-70
2021/12/24 09:39:56;;;;;;;1.10;1.10;;;5.70;99.90;;;;;;4972283;28;20225;-69
2021/12/24 09:42:24;;;;;;;1.37;1.20;;;5.70;99.90;;;;;;4972937;28;20170;-70
2021/12/24 09:44:49;;;;;;;0.80;0.80;;;5.70;99.90;;;;;;4972540;28;20167;-69
2021/12/24 09:47:15;;;;;;;1.50;1.40;;;5.70;99.90;;;;;;4972296;28;20811;-69
2021/12/24 09:49:40;;;;;;;1.13;1.03;;;5.70;99.90;;;;;;4972674;28;20189;-70
2021/12/24 09:52:06;;;;;;;1.30;0.97;;;5.70;99.90;;;;;;4973317;28;20240;-70
2021/12/24 09:54:32;;;;;;;0.83;0.83;;;5.70;99.90;;;;;;4972338;28;20209;-70
2021/12/24 09:56:58;;;;;;;1.13;1.00;;;5.70;99.90;;;;;;4971937;28;20264;-70
2021/12/24 09:59:25;;;;;;;0.90;0.90;;;5.70;99.90;;;;;;4971545;28;20418;-70
2021/12/24 10:02:01;;;;;;;0.80;0.80;;;5.70;99.90;;;;;;4973142;28;20500;-71
2021/12/24 10:04:30;;;;;;;1.13;0.90;;;5.70;99.90;;;;;;4976877;28;20439;-70
2021/12/24 10:07:03;;;;;;;1.27;1.17;;;5.80;99.90;;;;;;4976450;28;20835;-70
2021/12/24 10:09:36;;;;;;;1.13;1.03;;;5.70;99.90;;;;;;4976001;28;20504;-71
2021/12/24 10:12:04;;;;;;;1.20;1.10;;;5.80;99.90;;;;;;4975713;28;20424;-70
2021/12/24 10:14:36;;;;;;;0.80;0.80;;;5.80;99.90;;;;;;4975811;28;20413;-70
2021/12/24 10:17:05;;;;;;;1.57;1.17;;;5.70;99.90;;;;;;4987711;28;20468;-71
2021/12/24 10:19:43;;;;;;;1.37;1.27;;;5.70;99.90;;;;;;4978860;28;20410;-72
2021/12/24 10:22:11;;;;;;;1.90;1.50;;;5.70;99.90;;;;;;4983884;28;20404;-72
2021/12/24 10:24:37;;;;;;;1.17;0.90;;;5.70;99.90;;;;;;4980250;28;20413;-69
2021/12/24 10:27:02;;;;;;;0.77;0.77;;;5.70;99.90;;;;;;4978704;28;20448;-69
2021/12/24 10:29:31;;;;;;;5.10;1.40;;;5.70;99.90;;;;;;4974567;28;20182;-70
2021/12/24 10:32:06;;;;;;;1.20;1.10;;;5.70;99.90;;;;;;5005549;28;20181;-70
2021/12/24 10:34:34;;;;;;;1.00;0.97;;;5.60;99.90;;;;;;4974252;28;20934;-70
2021/12/24 10:37:06;;;;;;;1.33;0.97;;;5.70;99.90;;;;;;4973991;28;20539;-70
2021/12/24 10:39:38;;;;;;;0.93;0.93;;;5.60;99.90;;;;;;4974749;28;20413;-74
2021/12/24 10:42:08;;;;;;;1.20;1.10;;;5.70;99.90;;;;;;4974640;28;20444;-71
2021/12/24 10:44:37;;;;;;;0.80;0.80;;;5.80;99.90;;;;;;4974429;28;20431;-72
2021/12/24 10:47:07;;;;;;;1.60;1.27;;;5.70;99.90;;;;;;4973128;28;20438;-72
2021/12/24 10:53:13;;;;;;;3.50;1.77;;;5.70;99.90;;;;;;4974368;28;20401;-69
2021/12/24 10:55:05;;;;;;;5.90;1.87;;;5.70;99.90;;;;;;4970222;28;20443;-70
2021/12/24 10:57:33;;;;;;;2.13;2.03;;;5.60;99.90;;;;;;4973964;28;20468;-71
2021/12/24 11:00:04;;;;;;;2.20;1.30;;;5.60;99.90;;;;;;4974242;28;20751;-71
2021/12/24 11:02:34;;;;;;;3.23;2.33;;;5.60;99.90;;;;;;4973902;28;20413;-71
2021/12/24 11:05:00;;;;;;;2.30;1.33;;;5.70;99.90;;;;;;4974204;28;20412;-71
2021/12/24 11:07:40;;;;;;;1.10;1.00;;;5.60;99.90;;;;;;4974129;28;20971;-71
2021/12/24 11:10:19;;;;;;;5.30;1.70;;;5.60;99.90;;;;;;4974036;28;20425;-71
2021/12/24 11:12:59;;;;;;;2.00;1.43;;;5.70;99.90;;;;;;4974174;28;20496;-71
2021/12/24 11:15:34;;;;;;;1.00;0.90;;;5.60;99.90;;;;;;4973796;28;20413;-73
2021/12/24 11:18:07;;;;;;;1.40;1.30;;;5.50;99.90;;;;;;4973971;28;20531;-70
2021/12/24 11:20:34;;;;;;;0.80;0.80;;;5.40;99.90;;;;;;4973670;28;20415;-71
2021/12/24 11:23:09;;;;;;;0.90;0.80;;;5.40;99.90;;;;;;4959423;28;20434;-71
2021/12/24 11:25:50;;;;;;;0.80;0.80;;;5.50;99.90;;;;;;4954515;28;20777;-71
2021/12/24 11:28:17;;;;;;;1.20;1.10;;;5.30;99.90;;;;;;4953781;28;20414;-70
2021/12/24 11:30:45;;;;;;;1.07;1.00;;;5.40;99.90;;;;;;4954268;28;20512;-70
2021/12/24 11:33:38;;;;;;;1.30;1.20;;;5.30;99.90;;;;;;4972502;28;20430;-70
2021/12/24 11:36:06;;;;;;;0.83;0.80;;;5.30;99.90;;;;;;4974187;28;20543;-71
2021/12/24 11:38:36;;;;;;;1.17;0.80;;;5.20;99.90;;;;;;4973559;28;20413;-71
2021/12/24 11:41:03;;;;;;;1.37;0.70;;;5.10;99.90;;;;;;4973524;28;20414;-71
2021/12/24 11:43:35;;;;;;;1.23;1.00;;;5.00;99.90;;;;;;4973436;28;20420;-70
2021/12/24 11:46:05;;;;;;;1.03;0.93;;;5.00;99.90;;;;;;4973321;28;20416;-71
2021/12/24 11:48:33;;;;;;;0.80;0.80;;;5.00;99.90;;;;;;4973731;28;20420;-71
2021/12/24 11:51:15;;;;;;;0.70;0.70;;;4.90;99.90;;;;;;4973731;28;20907;-71
2021/12/24 11:53:42;;;;;;;0.60;0.60;;;4.80;99.90;;;;;;4973275;28;20425;-70
2021/12/24 11:56:13;;;;;;;0.93;0.80;;;4.80;99.90;;;;;;4973801;28;20509;-70
2021/12/24 11:58:45;;;;;;;0.70;0.70;;;4.70;99.90;;;;;;4954827;28;20436;-71
2021/12/24 12:01:11;;;;;;;1.33;0.70;;;4.70;99.90;;;;;;4954262;28;20915;-71
2021/12/24 12:03:40;;;;;;;0.70;0.70;;;4.70;99.90;;;;;;4953804;28;20461;-70
2021/12/24 12:06:10;;;;;;;1.27;1.17;;;4.70;99.90;;;;;;4969950;28;20447;-70
2021/12/24 12:08:40;;;;;;;1.90;0.80;;;4.60;99.90;;;;;;4972819;28;20441;-71
2021/12/24 12:11:14;;;;;;;0.87;0.87;;;4.60;99.90;;;;;;4972917;28;20508;-70
2021/12/24 12:14:04;;;;;;;2.10;0.90;;;4.40;99.90;;;;;;4972500;28;20405;-70
2021/12/24 12:16:38;;;;;;;0.80;0.80;;;4.40;99.90;;;;;;4972794;28;20472;-70
2021/12/24 12:19:30;;;;;;;0.70;0.70;;;4.30;99.90;;;;;;4972944;28;20420;-70
2021/12/24 12:22:15;;;;;;;0.80;0.80;;;4.20;99.90;;;;;;4973008;28;21033;-70
2021/12/24 12:27:27;;;;;;;0.70;0.70;;;4.10;99.90;;;;;;4966973;28;20446;-71
2021/12/24 12:29:53;;;;;;;0.80;0.70;;;4.10;99.90;;;;;;4953025;28;20920;-70
2021/12/24 12:32:18;;;;;;;1.80;1.30;;;4.00;99.90;;;;;;4964664;28;20432;-70
2021/12/24 12:34:43;;;;;;;2.87;1.00;;;3.90;99.90;;;;;;4972064;28;20319;-72
2021/12/24 12:37:24;;;;;;;0.80;0.80;;;3.80;99.90;;;;;;4972260;28;20216;-70
2021/12/24 12:39:56;;;;;;;3.03;2.73;;;3.80;99.90;;;;;;4986650;28;20637;-72
2021/12/24 12:42:43;;;;;;;1.60;1.10;;;3.70;99.90;;;;;;4972371;28;20409;-73
2021/12/24 12:45:09;;;;;;;0.70;0.70;;;3.60;99.90;;;;;;4967347;28;20448;-74
2021/12/24 12:47:52;;;;;;;1.53;0.97;;;3.60;99.90;;;;;;4972168;28;20435;-71
2021/12/24 12:50:18;;;;;;;0.93;0.93;;;3.50;99.90;;;;;;4972131;28;20252;-70
2021/12/24 12:52:44;;;;;;;0.90;0.90;;;3.50;99.90;;;;;;4972147;28;20444;-72
2021/12/24 12:55:30;;;;;;;0.70;0.70;;;3.40;99.90;;;;;;4972079;28;20820;-72
2021/12/24 12:58:17;;;;;;;1.00;1.00;;;3.40;99.90;;;;;;4966457;28;20209;-71
2021/12/24 13:01:03;;;;;;;0.87;0.80;;;3.20;99.90;;;;;;4984340;28;20936;-74
2021/12/24 13:03:28;;;;;;;3.03;1.63;;;3.10;99.90;;;;;;4972165;28;20780;-71
2021/12/24 13:06:00;;;;;;;1.83;1.50;;;3.20;99.90;;;;;;4966774;28;20437;-71
2021/12/24 13:08:29;;;;;;;1.30;1.20;;;3.20;99.90;;;;;;4972275;28;20204;-71
2021/12/24 13:11:13;;;;;;;1.27;0.90;;;3.20;99.90;;;;;;4972421;28;20412;-74
2021/12/24 13:13:55;;;;;;;1.47;1.20;;;3.10;99.90;;;;;;4972483;28;20413;-73
2021/12/24 13:16:33;;;;;;;1.67;1.53;;;2.90;99.90;;;;;;4969477;28;20578;-73
2021/12/24 13:19:21;;;;;;;1.40;1.30;;;2.80;99.90;;;;;;4972132;28;20397;-72
2021/12/24 13:25:10;;;;;;;1.33;1.23;;;2.80;99.90;;;;;;4969857;28;20456;-73
2021/12/24 13:27:50;;;;;;;1.40;1.30;;;2.80;99.90;;;;;;4972057;28;20428;-73
2021/12/24 13:30:26;;;;;;;1.67;1.57;;;2.90;99.90;;;;;;4971699;28;20504;-71
2021/12/24 13:32:54;;;;;;;1.43;1.33;;;2.90;99.90;;;;;;4968891;28;20420;-74
2021/12/24 13:35:31;;;;;;;1.23;1.17;;;2.90;99.90;;;;;;4971846;28;20828;-76
2021/12/24 13:37:58;;;;;;;2.10;1.87;;;2.80;99.90;;;;;;4971820;28;20498;-74
2021/12/24 13:40:33;;;;;;;2.83;1.63;;;2.80;99.90;;;;;;4971031;28;20847;-73
2021/12/24 13:43:04;;;;;;;1.70;1.60;;;2.70;99.90;;;;;;4957024;28;20780;-72
2021/12/24 13:45:34;;;;;;;1.30;1.20;;;2.80;99.90;;;;;;4952362;28;20954;-71
2021/12/24 13:48:08;;;;;;;1.63;1.30;;;2.80;99.90;;;;;;4952492;28;20433;-72
2021/12/24 13:56:35;;;;;;;2.30;1.83;;;2.60;99.90;;;;;;4958518;28;20523;-72
2021/12/24 13:59:00;;;;;;;2.40;1.70;;;2.50;99.90;;;;;;4968273;28;20944;-72
2021/12/24 14:01:29;;;;;;;1.40;1.27;;;2.40;99.90;;;;;;4957102;28;20414;-72
2021/12/24 14:03:55;;;;;;;1.20;1.07;;;2.50;99.90;;;;;;4958208;28;20179;-72
2021/12/24 14:06:31;;;;;;;1.93;1.40;;;2.40;99.90;;;;;;4956019;28;20488;-71
2021/12/24 14:09:09;;;;;;;1.90;1.80;;;2.50;99.90;;;;;;4962869;28;20817;-73
2021/12/24 14:11:36;;;;;;;2.60;1.83;;;2.40;99.90;;;;;;4974966;28;20444;-73
2021/12/24 14:14:07;;;;;;;2.60;1.87;;;2.40;99.90;;;;;;4975042;28;20897;-71
2021/12/24 14:16:43;;;;;;;1.47;1.37;;;2.40;99.90;;;;;;4975618;28;20457;-72
2021/12/24 14:19:16;;;;;;;2.50;1.50;;;2.40;99.90;;;;;;4977861;28;20404;-73
2021/12/24 14:21:45;;;;;;;1.60;1.50;;;2.40;99.90;;;;;;4974773;28;20822;-73
2021/12/24 14:24:15;;;;;;;2.27;2.17;;;2.40;99.90;;;;;;4974552;28;20459;-71
2021/12/24 14:26:47;;;;;;;1.60;1.50;;;2.40;99.90;;;;;;4974677;28;20504;-71
2021/12/24 14:29:22;;;;;;;3.53;1.83;;;2.40;99.90;;;;;;4974999;28;20405;-70
2021/12/24 14:32:00;;;;;;;2.80;2.17;;;2.40;99.90;;;;;;4974472;28;20413;-70
2021/12/24 14:34:43;;;;;;;4.40;1.73;;;2.40;99.90;;;;;;4955012;28;21160;-72
2021/12/24 14:37:16;;;;;;;4.80;2.50;;;2.20;99.90;;;;;;4955334;28;20461;-76
2021/12/24 14:39:52;;;;;;;3.03;2.60;;;2.10;99.90;;;;;;4959756;28;20443;-72
2021/12/24 14:42:27;;;;;;;1.77;1.67;;;2.10;99.90;;;;;;4974538;28;20479;-72